CheckWX is a tool to help pilots better visualize weather data.  It is not intended as a substitute for an official pre-flight weather briefing.

11:26:28 UTC

GMMX METAR
Menara Airport
Marrakech, Morocco
Current

26 mins ago

GMMX 151100Z 09006KT 030V140 9999 FEW028 24/13 Q1021 NOSIG
Observed
Oct-15 @ 11:00 UTC
Wind
  • 090° at 6 KTS
Visibility
10,000+ meters
Flight Rules
VFR
Cloud Levels
  • Few at 2,800' AGL
Temperature
24°C / 75°F
Dewpoint
13°C / 55°F
Humidity
50%
Altimeter
30.15" Hg
Pressure
1020.92 hPa
Previous

56 mins ago

GMMX 151030Z 07006KT 030V120 9999 FEW028 23/13 Q1021 NOSIG
Observed
Oct-15 @ 10:30 UTC
Wind
  • 070° at 6 KTS
Visibility
10,000+ meters
Flight Rules
VFR
Cloud Levels
  • Few at 2,800' AGL
Temperature
23°C / 73°F
Dewpoint
13°C / 55°F
Humidity
53%
Altimeter
30.15" Hg
Pressure
1020.92 hPa
Previous

1 hour ago

GMMX 151000Z VRB06KT 9999 FEW028 22/14 Q1021 NOSIG
Observed
Oct-15 @ 10:00 UTC
Wind
  • Variable at 6 KTS
Visibility
10,000+ meters
Flight Rules
VFR
Cloud Levels
  • Few at 2,800' AGL
Temperature
22°C / 72°F
Dewpoint
14°C / 57°F
Humidity
61%
Altimeter
30.15" Hg
Pressure
1020.92 hPa